Time;durP1;ratioP1;P1;durP2;ratioP2;P2;SDS_P1;SDS_P2;PMS_P1;PMS_P2;Temp;Humidity;BMP_temperature;BMP_pressure;BME280_temperature;BME280_humidity;BME280_pressure;Samples;Min_cycle;Max_cycle;Signal;HPM_P1;HPM_P2
2023/03/03 00:00:51;;;;;;;9.40;6.75;;;7.00;77.10;;;;;;5039192;28;20107;-83
2023/03/03 00:03:20;;;;;;;10.07;6.55;;;7.00;77.10;;;;;;5039648;28;20524;-83
2023/03/03 00:05:46;;;;;;;9.20;6.60;;;7.00;77.20;;;;;;5048487;28;20029;-83
2023/03/03 00:08:12;;;;;;;8.90;6.43;;;7.00;77.40;;;;;;5073483;28;20075;-82
2023/03/03 00:10:38;;;;;;;10.38;7.50;;;7.00;77.20;;;;;;5040156;28;20051;-83
2023/03/03 00:13:35;;;;;;;8.40;6.40;;;7.00;77.10;;;;;;5039724;28;20440;-83
2023/03/03 00:16:15;;;;;;;9.55;6.32;;;7.00;77.20;;;;;;5047128;28;20032;-82
2023/03/03 00:18:44;;;;;;;9.25;6.22;;;7.00;77.20;;;;;;5049676;28;20028;-83
2023/03/03 00:21:27;;;;;;;10.57;7.07;;;7.00;77.10;;;;;;5037664;28;20290;-83
2023/03/03 00:23:57;;;;;;;9.35;6.93;;;6.90;77.10;;;;;;5054802;28;20082;-83
2023/03/03 00:26:33;;;;;;;10.30;6.65;;;6.90;77.10;;;;;;5039482;28;20078;-83
2023/03/03 00:29:00;;;;;;;10.50;6.90;;;6.90;77.10;;;;;;5051727;28;20079;-82
2023/03/03 00:31:33;;;;;;;11.30;7.60;;;6.90;77.10;;;;;;5041038;28;20036;-83
2023/03/03 00:34:24;;;;;;;10.05;6.97;;;6.90;77.20;;;;;;5055190;28;20021;-82
2023/03/03 00:36:54;;;;;;;9.60;6.82;;;6.80;77.20;;;;;;5044656;28;20072;-83
2023/03/03 00:39:35;;;;;;;9.35;6.80;;;6.80;77.20;;;;;;5050097;28;20032;-83
2023/03/03 00:42:04;;;;;;;10.23;6.63;;;6.80;77.30;;;;;;5052838;28;20032;-83
2023/03/03 00:44:30;;;;;;;9.95;7.05;;;6.80;77.20;;;;;;5054108;28;20055;-83
2023/03/03 00:46:56;;;;;;;10.73;7.60;;;6.80;77.20;;;;;;5053980;28;20376;-84
2023/03/03 00:49:25;;;;;;;10.00;7.15;;;6.70;77.20;;;;;;5039058;28;20033;-83
2023/03/03 00:51:52;;;;;;;11.55;7.63;;;6.70;77.30;;;;;;5054618;28;20032;-83
2023/03/03 00:54:18;;;;;;;11.13;7.28;;;6.70;77.30;;;;;;5048710;28;20028;-84
2023/03/03 00:56:44;;;;;;;10.05;6.60;;;6.70;77.30;;;;;;5033662;28;20071;-83
2023/03/03 00:59:10;;;;;;;9.30;6.72;;;6.70;77.30;;;;;;5018473;28;20087;-83
2023/03/03 01:01:37;;;;;;;10.20;7.07;;;6.70;77.30;;;;;;5050324;28;20032;-83
2023/03/03 01:04:03;;;;;;;10.45;7.60;;;6.70;77.30;;;;;;5019749;28;20025;-83
2023/03/03 01:06:29;;;;;;;10.27;6.88;;;6.70;77.30;;;;;;5033175;28;20024;-83
2023/03/03 01:08:56;;;;;;;10.68;7.78;;;6.60;77.30;;;;;;5037318;28;20398;-83
2023/03/03 01:11:27;;;;;;;10.68;7.15;;;6.60;77.30;;;;;;5021814;28;20105;-83
2023/03/03 01:13:53;;;;;;;9.13;6.28;;;6.60;77.30;;;;;;5047345;28;20043;-83
2023/03/03 01:16:20;;;;;;;10.48;7.40;;;6.60;77.30;;;;;;5053925;28;20044;-83
2023/03/03 01:18:46;;;;;;;10.13;6.93;;;6.60;77.30;;;;;;5035904;28;20025;-83
2023/03/03 01:21:12;;;;;;;11.23;7.43;;;6.60;77.30;;;;;;5055261;28;20019;-83
2023/03/03 01:23:38;;;;;;;10.82;7.07;;;6.50;77.30;;;;;;5035942;28;20025;-83
2023/03/03 01:26:05;;;;;;;10.27;6.82;;;6.60;77.30;;;;;;5066522;28;20024;-83
2023/03/03 01:28:32;;;;;;;10.40;7.15;;;6.60;77.40;;;;;;5050781;28;20049;-83
2023/03/03 01:31:03;;;;;;;10.98;7.43;;;6.60;77.40;;;;;;5039037;28;20029;-83
2023/03/03 01:33:30;;;;;;;11.23;7.65;;;6.50;77.30;;;;;;5038296;28;20051;-83
2023/03/03 01:35:56;;;;;;;11.07;7.75;;;6.50;77.30;;;;;;5044953;28;20017;-84
2023/03/03 01:38:22;;;;;;;10.63;7.38;;;6.50;77.30;;;;;;5037284;28;20050;-83
2023/03/03 01:40:53;;;;;;;10.13;7.10;;;6.50;77.40;;;;;;5037828;28;20489;-83
2023/03/03 01:43:19;;;;;;;10.30;7.32;;;6.50;77.40;;;;;;5037031;28;20041;-82
2023/03/03 01:45:47;;;;;;;9.15;6.43;;;6.50;77.40;;;;;;5034593;28;20051;-83
2023/03/03 01:48:36;;;;;;;11.13;7.65;;;6.50;77.40;;;;;;5037249;28;20029;-83
2023/03/03 01:51:29;;;;;;;10.60;7.32;;;6.50;77.50;;;;;;5038027;28;20071;-84
2023/03/03 01:53:59;;;;;;;9.70;7.28;;;6.40;77.40;;;;;;5052658;28;20028;-85
2023/03/03 01:56:26;;;;;;;10.32;6.78;;;6.40;77.40;;;;;;5053476;28;20024;-83
2023/03/03 01:58:57;;;;;;;10.10;7.50;;;6.40;77.40;;;;;;5037444;28;20037;-83
2023/03/03 02:01:26;;;;;;;9.90;6.85;;;6.40;77.50;;;;;;5032835;28;20042;-82
2023/03/03 02:03:52;;;;;;;10.95;7.05;;;6.40;77.50;;;;;;5038902;28;20048;-82
2023/03/03 02:06:23;;;;;;;9.88;6.97;;;6.40;77.40;;;;;;5033624;28;20051;-84
2023/03/03 02:09:09;;;;;;;10.38;6.88;;;6.40;77.50;;;;;;5036419;28;20123;-83
2023/03/03 02:11:37;;;;;;;9.10;6.45;;;6.40;77.50;;;;;;5046504;28;20090;-84
2023/03/03 02:14:03;;;;;;;9.80;6.65;;;6.30;77.40;;;;;;5034260;28;20021;-83
2023/03/03 02:16:29;;;;;;;9.43;6.32;;;6.30;77.40;;;;;;5069459;28;20060;-84
2023/03/03 02:18:55;;;;;;;9.30;6.55;;;6.30;77.40;;;;;;5032971;28;20464;-83
2023/03/03 02:21:25;;;;;;;10.63;7.50;;;6.30;77.40;;;;;;5035650;28;20017;-83
2023/03/03 02:24:09;;;;;;;10.70;7.05;;;6.30;77.40;;;;;;5050888;28;20048;-82
2023/03/03 02:26:40;;;;;;;10.15;7.43;;;6.30;77.50;;;;;;5046042;28;20028;-83
2023/03/03 02:29:09;;;;;;;9.88;7.43;;;6.30;77.50;;;;;;5035674;28;20053;-83
2023/03/03 02:31:37;;;;;;;10.48;7.25;;;6.30;78.10;;;;;;5018818;28;20124;-83
2023/03/03 02:34:03;;;;;;;10.95;7.88;;;6.30;77.50;;;;;;5047623;28;20028;-82
2023/03/03 02:36:32;;;;;;;9.77;6.75;;;6.30;77.50;;;;;;5033079;28;20098;-83
2023/03/03 02:39:21;;;;;;;10.38;7.28;;;6.20;77.40;;;;;;5049673;28;20020;-83
2023/03/03 02:42:06;;;;;;;9.35;6.50;;;6.30;77.50;;;;;;5064355;28;20107;-83
2023/03/03 02:44:41;;;;;;;10.25;7.03;;;6.30;77.50;;;;;;5052821;28;20024;-83
2023/03/03 02:47:07;;;;;;;10.25;7.05;;;6.20;77.40;;;;;;5051579;28;20036;-83
2023/03/03 02:49:35;;;;;;;9.68;6.78;;;6.20;77.50;;;;;;5049994;28;20024;-82
2023/03/03 02:52:04;;;;;;;12.00;7.70;;;6.20;77.50;;;;;;5033916;28;20048;-84
2023/03/03 02:54:31;;;;;;;10.20;7.28;;;6.20;77.50;;;;;;5044226;28;20078;-83
2023/03/03 02:56:59;;;;;;;10.35;7.03;;;6.20;77.50;;;;;;5052178;28;20020;-83
2023/03/03 02:59:26;;;;;;;10.65;7.43;;;6.20;77.50;;;;;;5046956;28;20557;-80
2023/03/03 03:01:52;;;;;;;10.45;7.05;;;6.20;78.10;;;;;;5036386;28;20029;-81
2023/03/03 03:04:21;;;;;;;9.93;6.97;;;6.20;77.50;;;;;;5036264;28;20033;-79
2023/03/03 03:06:49;;;;;;;10.32;6.88;;;6.20;77.60;;;;;;5052980;28;20025;-79
2023/03/03 03:09:17;;;;;;;11.07;7.40;;;6.10;77.50;;;;;;5036648;28;20047;-80
2023/03/03 03:11:45;;;;;;;10.80;7.43;;;6.20;77.60;;;;;;5035434;28;20507;-82
2023/03/03 03:14:13;;;;;;;10.18;7.00;;;6.10;77.60;;;;;;5036162;28;20021;-82
2023/03/03 03:16:39;;;;;;;11.90;7.85;;;6.20;77.60;;;;;;5036132;28;20028;-80
2023/03/03 03:19:06;;;;;;;11.50;7.70;;;6.10;77.60;;;;;;5020434;28;20461;-81
2023/03/03 03:21:33;;;;;;;11.13;7.78;;;6.10;77.60;;;;;;5036480;28;20051;-80
2023/03/03 03:24:00;;;;;;;10.95;7.03;;;6.10;77.60;;;;;;5019556;28;20020;-80
2023/03/03 03:26:26;;;;;;;11.38;8.00;;;6.10;77.70;;;;;;5036583;28;20037;-80
2023/03/03 03:28:52;;;;;;;9.75;6.95;;;6.10;77.60;;;;;;5032698;28;20060;-80
2023/03/03 03:31:20;;;;;;;11.50;7.68;;;6.10;77.60;;;;;;5032444;28;20033;-81
2023/03/03 03:33:46;;;;;;;10.40;7.35;;;6.10;77.70;;;;;;5032836;28;20036;-80
2023/03/03 03:36:13;;;;;;;10.57;7.15;;;6.10;77.60;;;;;;5016376;28;20179;-80
2023/03/03 03:38:40;;;;;;;10.10;7.03;;;6.10;77.60;;;;;;5033406;28;20061;-80
2023/03/03 03:41:08;;;;;;;10.20;6.57;;;6.10;77.60;;;;;;5048989;28;20033;-80
2023/03/03 03:43:34;;;;;;;9.65;6.22;;;6.10;77.60;;;;;;5032350;28;20025;-81
2023/03/03 03:46:01;;;;;;;10.55;7.18;;;6.10;77.60;;;;;;5016552;28;20045;-80
2023/03/03 03:48:27;;;;;;;10.88;6.78;;;6.00;77.60;;;;;;5032532;28;20029;-80
2023/03/03 03:50:54;;;;;;;11.40;7.50;;;6.00;77.50;;;;;;5016962;28;20059;-81
2023/03/03 03:53:22;;;;;;;10.27;7.00;;;6.10;77.70;;;;;;5016783;28;20030;-79
2023/03/03 03:55:48;;;;;;;10.75;6.88;;;6.00;77.60;;;;;;5032594;28;20033;-81
2023/03/03 03:58:16;;;;;;;11.05;7.25;;;6.00;77.60;;;;;;5032195;28;20068;-80
2023/03/03 04:00:44;;;;;;;12.23;7.63;;;6.00;77.60;;;;;;5032280;28;20022;-81
2023/03/03 04:03:13;;;;;;;9.38;6.18;;;6.00;77.60;;;;;;5016147;28;20036;-80
2023/03/03 04:05:40;;;;;;;10.95;7.07;;;6.00;77.60;;;;;;5032507;28;20091;-79
2023/03/03 04:08:07;;;;;;;13.18;8.13;;;6.00;77.60;;;;;;5032211;28;20053;-81
2023/03/03 04:10:33;;;;;;;10.65;7.13;;;6.00;77.60;;;;;;5032328;28;20072;-80
2023/03/03 04:12:59;;;;;;;11.68;7.47;;;6.00;77.60;;;;;;5015776;28;20026;-80
2023/03/03 04:15:25;;;;;;;12.07;7.57;;;6.00;77.60;;;;;;5032306;28;20025;-80
2023/03/03 04:17:51;;;;;;;11.73;7.75;;;6.00;77.60;;;;;;5032134;28;20026;-80
2023/03/03 04:20:17;;;;;;;10.45;7.07;;;6.00;77.60;;;;;;5032497;28;20036;-81
2023/03/03 04:22:45;;;;;;;10.25;7.10;;;6.00;77.60;;;;;;5034720;28;20030;-81
2023/03/03 04:25:16;;;;;;;9.90;6.70;;;6.00;77.60;;;;;;5036439;28;20112;-79
2023/03/03 04:27:43;;;;;;;11.38;7.32;;;6.00;77.60;;;;;;5019312;28;20029;-80
2023/03/03 04:30:11;;;;;;;10.75;7.28;;;6.00;77.60;;;;;;5035269;28;20059;-80
2023/03/03 04:32:38;;;;;;;11.10;7.18;;;5.90;77.60;;;;;;5035729;28;20394;-80
2023/03/03 04:35:07;;;;;;;11.88;7.65;;;5.90;77.60;;;;;;5035715;28;20033;-81
2023/03/03 04:37:35;;;;;;;11.50;7.47;;;5.90;77.60;;;;;;5037133;28;20025;-80
2023/03/03 04:40:01;;;;;;;10.27;6.90;;;5.90;77.60;;;;;;5021796;28;20057;-80
2023/03/03 04:42:28;;;;;;;11.18;7.38;;;5.90;77.60;;;;;;5020642;28;20132;-80
2023/03/03 04:44:55;;;;;;;10.70;7.07;;;6.00;77.60;;;;;;5035752;28;20037;-81
2023/03/03 04:47:21;;;;;;;11.60;7.03;;;5.90;77.50;;;;;;5035526;28;20041;-80
2023/03/03 04:49:47;;;;;;;12.77;7.43;;;5.90;77.60;;;;;;5035519;28;20176;-81
2023/03/03 04:52:13;;;;;;;11.15;7.20;;;5.90;77.60;;;;;;5035716;28;20435;-80
2023/03/03 04:54:38;;;;;;;10.73;6.85;;;5.90;77.60;;;;;;5035664;28;20109;-80
2023/03/03 04:57:06;;;;;;;11.02;7.38;;;5.90;77.60;;;;;;5019032;28;20493;-81
2023/03/03 04:59:32;;;;;;;12.18;7.22;;;5.90;77.60;;;;;;5051546;28;20061;-81
2023/03/03 05:01:58;;;;;;;11.70;7.63;;;5.90;77.60;;;;;;5035334;28;20029;-81
2023/03/03 05:04:24;;;;;;;11.82;7.38;;;5.90;77.60;;;;;;5019380;28;20022;-80
2023/03/03 05:06:50;;;;;;;11.95;7.40;;;5.90;77.60;;;;;;5035838;28;20450;-82
2023/03/03 05:09:16;;;;;;;11.45;7.45;;;5.90;77.60;;;;;;5036276;28;20038;-79
2023/03/03 05:11:42;;;;;;;10.68;7.07;;;5.90;77.60;;;;;;5035329;28;20041;-79
2023/03/03 05:14:07;;;;;;;11.82;7.75;;;5.90;77.60;;;;;;5034219;28;20116;-80
2023/03/03 05:16:33;;;;;;;11.73;7.55;;;5.90;77.60;;;;;;5034893;28;20461;-80
2023/03/03 05:18:59;;;;;;;12.23;7.65;;;5.90;77.60;;;;;;5034973;28;20025;-80
2023/03/03 05:21:25;;;;;;;11.63;7.65;;;5.90;77.60;;;;;;5034782;28;20503;-81
2023/03/03 05:23:51;;;;;;;11.73;7.78;;;5.90;77.60;;;;;;5034973;28;20052;-81
2023/03/03 05:26:17;;;;;;;13.07;8.15;;;5.90;77.60;;;;;;5051156;28;20619;-81
2023/03/03 05:28:42;;;;;;;13.98;8.23;;;5.90;77.60;;;;;;5035648;28;20120;-80
2023/03/03 05:31:08;;;;;;;11.93;8.02;;;5.90;77.60;;;;;;5051626;28;20049;-81
2023/03/03 05:33:34;;;;;;;11.68;7.57;;;5.80;77.60;;;;;;5055112;28;20361;-81
2023/03/03 05:36:00;;;;;;;11.55;7.50;;;5.90;77.70;;;;;;5054225;28;20521;-79
2023/03/03 05:38:26;;;;;;;11.02;7.18;;;5.90;77.60;;;;;;5037448;28;20171;-81
2023/03/03 05:40:51;;;;;;;12.43;7.50;;;5.90;77.60;;;;;;5038888;28;20064;-82
2023/03/03 05:43:18;;;;;;;12.00;7.72;;;5.90;77.60;;;;;;5054106;28;20402;-80
2023/03/03 05:45:44;;;;;;;10.93;6.93;;;5.90;77.60;;;;;;5037286;28;20489;-81
2023/03/03 05:48:10;;;;;;;11.18;7.57;;;5.90;77.60;;;;;;5054798;28;20064;-82
2023/03/03 05:50:37;;;;;;;10.82;7.15;;;5.80;77.60;;;;;;5053952;28;20052;-81
2023/03/03 05:53:03;;;;;;;11.73;7.55;;;5.80;77.60;;;;;;5036945;28;20096;-82
2023/03/03 05:55:29;;;;;;;13.60;7.75;;;5.90;77.70;;;;;;5037043;28;20512;-81
2023/03/03 05:57:55;;;;;;;12.20;7.65;;;5.80;77.60;;;;;;5037698;28;20029;-81
2023/03/03 06:00:21;;;;;;;12.57;7.88;;;5.90;77.60;;;;;;5055020;28;20064;-82
2023/03/03 06:02:47;;;;;;;12.05;7.70;;;5.80;78.20;;;;;;5037311;28;20031;-83
2023/03/03 06:05:13;;;;;;;10.65;7.03;;;5.80;77.60;;;;;;5037351;28;20040;-81
2023/03/03 06:07:39;;;;;;;11.73;7.63;;;5.80;77.60;;;;;;5037334;28;20017;-82
2023/03/03 06:10:05;;;;;;;12.02;6.97;;;5.80;77.60;;;;;;5053915;28;20036;-80
2023/03/03 06:12:33;;;;;;;10.68;7.20;;;5.80;77.60;;;;;;5036853;28;20029;-80
2023/03/03 06:14:59;;;;;;;10.73;7.07;;;5.80;77.60;;;;;;5020505;28;20516;-81
2023/03/03 06:17:25;;;;;;;11.40;7.00;;;5.80;77.60;;;;;;5020692;28;20036;-80
2023/03/03 06:19:50;;;;;;;10.93;6.78;;;5.90;77.60;;;;;;5020630;28;20044;-81
2023/03/03 06:22:16;;;;;;;11.63;7.57;;;5.80;77.60;;;;;;5021069;28;20044;-83
2023/03/03 06:24:42;;;;;;;11.32;7.18;;;5.80;77.60;;;;;;5020873;28;20039;-79
2023/03/03 06:27:08;;;;;;;11.40;6.82;;;5.80;77.60;;;;;;5055129;28;20046;-82
2023/03/03 06:29:34;;;;;;;11.32;7.30;;;5.80;77.60;;;;;;5054380;28;20116;-82
2023/03/03 06:32:00;;;;;;;10.38;6.25;;;5.80;77.60;;;;;;5019944;28;20072;-82
2023/03/03 06:34:26;;;;;;;8.88;5.95;;;5.80;77.60;;;;;;5053556;28;20056;-80
2023/03/03 06:36:51;;;;;;;8.93;5.75;;;5.80;77.70;;;;;;5020426;28;20029;-81
2023/03/03 06:39:17;;;;;;;9.93;6.63;;;5.80;77.70;;;;;;5053330;28;20035;-82
2023/03/03 06:41:43;;;;;;;11.05;6.95;;;5.80;77.70;;;;;;5020282;28;20017;-82
2023/03/03 06:44:10;;;;;;;10.25;6.45;;;5.80;77.70;;;;;;5036798;28;20120;-82
2023/03/03 06:46:36;;;;;;;9.65;6.60;;;5.80;77.70;;;;;;5019489;28;20362;-83
2023/03/03 06:49:02;;;;;;;9.82;6.15;;;5.80;77.70;;;;;;5036758;28;20036;-82
2023/03/03 06:51:32;;;;;;;8.32;5.72;;;5.80;77.70;;;;;;5037470;28;20037;-83
2023/03/03 06:54:05;;;;;;;9.40;6.20;;;5.80;77.70;;;;;;5036790;28;20043;-82
2023/03/03 06:56:35;;;;;;;9.93;6.20;;;5.80;77.70;;;;;;5036198;28;20035;-81
2023/03/03 06:59:05;;;;;;;9.90;5.88;;;5.80;77.70;;;;;;5020399;28;20116;-82
2023/03/03 07:01:35;;;;;;;9.15;5.63;;;5.80;77.60;;;;;;5035830;28;20036;-83
2023/03/03 07:04:14;;;;;;;10.10;6.40;;;5.80;77.60;;;;;;5036787;28;20035;-82
2023/03/03 07:06:40;;;;;;;8.70;5.78;;;5.80;77.60;;;;;;5019755;28;20029;-82
2023/03/03 07:09:17;;;;;;;9.32;5.97;;;5.80;77.60;;;;;;5020157;28;20021;-82
2023/03/03 07:11:43;;;;;;;9.38;6.38;;;5.80;77.60;;;;;;5054168;28;20040;-83
2023/03/03 07:14:16;;;;;;;9.82;6.28;;;5.80;77.60;;;;;;5052909;28;20025;-82
2023/03/03 07:16:42;;;;;;;9.13;5.82;;;5.80;77.60;;;;;;5036860;28;20033;-82
2023/03/03 07:19:26;;;;;;;9.52;5.18;;;5.80;77.60;;;;;;5036253;28;20527;-82
2023/03/03 07:21:52;;;;;;;9.67;5.50;;;5.80;77.70;;;;;;5034338;28;20111;-82
2023/03/03 07:24:29;;;;;;;9.23;5.38;;;5.80;77.60;;;;;;5036572;28;20067;-82
2023/03/03 07:27:17;;;;;;;9.05;5.75;;;5.80;77.70;;;;;;5036371;28;20115;-83
2023/03/03 07:29:48;;;;;;;9.15;5.68;;;5.80;77.70;;;;;;5036561;28;20122;-81
2023/03/03 07:32:53;;;;;;;7.35;4.97;;;5.70;77.60;;;;;;5036122;28;20056;-81
2023/03/03 07:35:39;;;;;;;7.53;5.28;;;5.80;77.70;;;;;;4976287;28;20044;-82
2023/03/03 07:38:52;;;;;;;7.60;5.05;;;5.80;77.70;;;;;;4976313;28;20041;-82
2023/03/03 07:41:24;;;;;;;7.20;4.47;;;5.80;77.70;;;;;;4988214;28;20040;-82
2023/03/03 07:44:32;;;;;;;7.63;4.70;;;5.80;77.60;;;;;;4976225;28;20399;-83
2023/03/03 07:46:59;;;;;;;6.85;4.10;;;5.80;77.80;;;;;;5007322;28;20142;-81
2023/03/03 07:49:36;;;;;;;6.60;4.25;;;5.70;77.60;;;;;;5052499;28;20055;-81
2023/03/03 07:52:25;;;;;;;6.90;4.40;;;5.80;77.70;;;;;;5053608;28;20112;-81
2023/03/03 07:54:52;;;;;;;6.70;4.07;;;5.80;77.70;;;;;;5020210;28;20111;-82
2023/03/03 07:57:25;;;;;;;8.20;4.75;;;5.80;77.70;;;;;;5020999;28;20029;-81
2023/03/03 08:00:01;;;;;;;6.25;4.22;;;5.80;77.70;;;;;;5057658;28;20075;-82
2023/03/03 08:03:01;;;;;;;6.68;4.20;;;5.80;77.70;;;;;;5039657;28;20021;-81
2023/03/03 08:05:27;;;;;;;6.25;4.25;;;5.80;77.70;;;;;;5039973;28;20098;-82
2023/03/03 08:08:01;;;;;;;6.72;4.35;;;5.80;77.60;;;;;;5039605;28;20017;-81
2023/03/03 08:10:51;;;;;;;6.97;4.30;;;5.80;77.70;;;;;;5039681;28;20083;-83
2023/03/03 08:13:19;;;;;;;6.50;3.97;;;5.80;77.80;;;;;;5023932;28;20416;-81
2023/03/03 08:15:49;;;;;;;7.82;4.40;;;5.80;77.60;;;;;;5039568;28;20031;-82
2023/03/03 08:18:29;;;;;;;6.18;3.80;;;5.80;77.60;;;;;;5039361;28;20025;-81
2023/03/03 08:21:11;;;;;;;7.05;4.18;;;5.80;77.80;;;;;;5057290;28;20065;-82
2023/03/03 08:23:37;;;;;;;6.20;3.95;;;5.90;77.80;;;;;;5039685;28;20404;-81
2023/03/03 08:26:03;;;;;;;5.70;3.75;;;5.90;78.40;;;;;;5039597;28;20124;-81
2023/03/03 08:28:29;;;;;;;6.35;4.07;;;5.90;77.80;;;;;;5038766;28;20459;-82
2023/03/03 08:30:55;;;;;;;6.95;4.25;;;5.90;77.80;;;;;;5018849;28;20050;-81
2023/03/03 08:33:21;;;;;;;6.40;4.03;;;5.90;77.80;;;;;;5036080;28;20522;-82
2023/03/03 08:35:47;;;;;;;6.55;4.13;;;5.90;77.80;;;;;;5035564;28;20026;-81
2023/03/03 08:38:16;;;;;;;7.65;4.20;;;5.90;77.80;;;;;;5052009;28;20041;-80
2023/03/03 08:40:42;;;;;;;6.53;4.25;;;5.90;77.80;;;;;;5035731;28;20462;-81
2023/03/03 08:43:08;;;;;;;6.65;4.25;;;5.90;77.80;;;;;;5018592;28;20100;-81
2023/03/03 08:45:35;;;;;;;7.38;4.72;;;5.90;77.80;;;;;;5035080;28;20026;-82
2023/03/03 08:48:01;;;;;;;6.55;4.68;;;6.00;77.80;;;;;;5035396;28;20073;-81
2023/03/03 08:50:28;;;;;;;5.53;3.55;;;6.00;77.80;;;;;;5036098;28;20080;-82
2023/03/03 08:52:54;;;;;;;6.57;4.32;;;6.00;77.80;;;;;;5034863;28;20068;-80
2023/03/03 08:55:20;;;;;;;6.57;4.18;;;6.00;77.80;;;;;;5052467;28;20037;-82
2023/03/03 08:57:46;;;;;;;4.90;3.33;;;6.00;77.70;;;;;;5035191;28;20034;-82
2023/03/03 09:00:15;;;;;;;5.60;3.50;;;6.00;77.70;;;;;;5035095;28;20028;-81
2023/03/03 09:02:41;;;;;;;6.40;3.78;;;6.00;77.80;;;;;;5036102;28;20041;-81
2023/03/03 09:05:08;;;;;;;6.07;4.10;;;6.10;77.80;;;;;;5051509;28;20106;-82
2023/03/03 09:07:34;;;;;;;4.75;3.58;;;6.10;77.80;;;;;;5034996;28;20116;-82
2023/03/03 09:10:00;;;;;;;6.55;3.58;;;6.10;77.70;;;;;;5034019;28;20116;-84
2023/03/03 09:12:40;;;;;;;5.40;3.53;;;6.10;77.70;;;;;;5034981;28;20030;-81
2023/03/03 09:15:27;;;;;;;5.00;3.40;;;6.10;77.70;;;;;;5018819;28;20064;-82
2023/03/03 09:17:59;;;;;;;5.45;3.83;;;6.10;77.70;;;;;;5036037;28;20021;-82
2023/03/03 09:20:34;;;;;;;5.28;3.50;;;6.20;77.80;;;;;;5035750;28;20033;-82
2023/03/03 09:23:32;;;;;;;5.13;3.42;;;6.20;77.70;;;;;;5035148;28;20036;-82
2023/03/03 09:26:26;;;;;;;6.47;3.35;;;6.20;77.80;;;;;;5002363;28;20048;-82
2023/03/03 09:28:54;;;;;;;5.68;3.90;;;6.20;77.70;;;;;;5035241;28;20105;-83
2023/03/03 09:31:25;;;;;;;5.10;3.47;;;6.20;77.70;;;;;;5017996;28;20223;-82
2023/03/03 09:33:54;;;;;;;5.35;3.63;;;6.20;77.70;;;;;;5034802;28;20033;-84
2023/03/03 09:36:29;;;;;;;6.03;3.70;;;6.30;77.70;;;;;;5034641;28;20025;-82
2023/03/03 09:38:56;;;;;;;5.57;3.70;;;6.30;77.70;;;;;;5018250;28;20131;-83
2023/03/03 09:41:52;;;;;;;6.20;4.15;;;6.30;77.70;;;;;;5035841;28;20034;-82
2023/03/03 09:44:29;;;;;;;;;;;6.30;78.40;;;;;;5035557;28;20026;-82
2023/03/03 09:47:17;;;;;;;5.15;3.28;;;6.30;77.50;;;;;;5035431;28;19909;-82
2023/03/03 09:50:12;;;;;;;5.03;2.83;;;6.30;77.60;;;;;;5034213;28;20052;-82
2023/03/03 09:53:00;;;;;;;5.63;3.47;;;6.40;77.70;;;;;;5032421;28;20034;-82
2023/03/03 09:55:39;;;;;;;5.00;3.35;;;6.40;77.60;;;;;;5034904;28;20466;-82
2023/03/03 09:58:23;;;;;;;5.40;3.55;;;6.40;77.60;;;;;;5034673;28;20029;-81
2023/03/03 10:01:06;;;;;;;5.60;3.40;;;6.40;77.60;;;;;;5034435;28;20033;-83
2023/03/03 10:03:59;;;;;;;6.22;3.55;;;6.40;77.50;;;;;;5035745;28;20025;-82
2023/03/03 10:06:36;;;;;;;4.63;3.17;;;6.50;77.60;;;;;;5035414;28;20056;-80
2023/03/03 10:09:22;;;;;;;5.00;3.25;;;6.50;77.50;;;;;;5034036;28;20038;-82
2023/03/03 10:11:52;;;;;;;5.03;3.17;;;6.60;77.60;;;;;;5035019;28;20105;-82
2023/03/03 10:14:33;;;;;;;5.68;3.58;;;6.60;77.50;;;;;;5051287;28;20027;-85
2023/03/03 10:17:08;;;;;;;5.38;3.28;;;6.70;77.50;;;;;;5035249;28;20159;-84
2023/03/03 10:19:45;;;;;;;;;;;6.70;77.40;;;;;;5033640;28;20095;-81
2023/03/03 10:22:10;;;;;;;4.38;3.10;;;6.70;77.20;;;;;;5017009;28;19917;-82
2023/03/03 10:24:59;;;;;;;5.30;3.42;;;6.80;77.10;;;;;;5033275;28;20389;-80
2023/03/03 10:27:34;;;;;;;3.88;2.72;;;6.80;77.20;;;;;;5034211;28;20397;-81
2023/03/03 10:30:06;;;;;;;4.80;3.08;;;6.90;77.10;;;;;;5033234;28;20037;-81
2023/03/03 10:32:53;;;;;;;4.97;3.10;;;6.90;77.10;;;;;;5033205;28;20050;-81
2023/03/03 10:35:31;;;;;;;4.50;2.92;;;7.00;77.20;;;;;;5033595;28;20109;-82
2023/03/03 10:38:13;;;;;;;4.75;3.30;;;7.10;77.10;;;;;;5034055;28;20085;-81
2023/03/03 10:41:06;;;;;;;4.93;3.00;;;7.10;77.00;;;;;;5034923;28;20037;-81
2023/03/03 10:43:40;;;;;;;4.38;2.88;;;7.10;77.00;;;;;;5034473;28;20481;-82
2023/03/03 10:46:12;;;;;;;5.40;3.05;;;7.20;77.00;;;;;;5033309;28;20036;-81
2023/03/03 10:49:09;;;;;;;4.68;3.20;;;7.30;77.00;;;;;;5033777;28;20371;-82
2023/03/03 10:51:48;;;;;;;4.13;2.65;;;7.30;77.00;;;;;;5033412;28;20025;-82
2023/03/03 10:54:22;;;;;;;4.45;3.00;;;7.40;76.90;;;;;;5033806;28;20036;-82
2023/03/03 10:57:11;;;;;;;4.07;2.80;;;7.50;77.00;;;;;;5033051;28;20052;-81
2023/03/03 10:59:40;;;;;;;4.43;3.05;;;7.60;77.00;;;;;;5034473;28;20029;-81
2023/03/03 11:02:21;;;;;;;4.55;3.13;;;7.60;76.90;;;;;;5033461;28;20021;-83
2023/03/03 11:04:50;;;;;;;4.10;2.80;;;7.70;77.00;;;;;;5033936;28;20022;-82
2023/03/03 11:07:40;;;;;;;5.13;3.05;;;7.80;76.90;;;;;;5032872;28;20370;-80
2023/03/03 11:10:24;;;;;;;4.20;2.78;;;7.80;76.90;;;;;;5033823;28;20429;-82
2023/03/03 11:13:17;;;;;;;4.97;3.10;;;7.90;76.90;;;;;;5034353;28;20068;-83
2023/03/03 11:16:00;;;;;;;4.93;3.25;;;8.00;77.00;;;;;;5033210;28;20083;-81
2023/03/03 11:18:49;;;;;;;3.33;2.25;;;8.10;77.00;;;;;;5033561;28;20080;-82
2023/03/03 11:21:24;;;;;;;4.57;3.30;;;8.10;76.90;;;;;;5012690;28;20037;-81
2023/03/03 11:24:11;;;;;;;4.75;3.13;;;8.20;77.00;;;;;;5033709;28;20060;-82
2023/03/03 11:26:40;;;;;;;3.95;2.85;;;8.20;77.00;;;;;;5032287;28;20033;-81
2023/03/03 11:29:13;;;;;;;4.70;2.75;;;8.30;77.00;;;;;;5033846;28;20441;-81
2023/03/03 11:31:42;;;;;;;5.35;3.28;;;8.40;77.10;;;;;;5044657;28;20037;-81
2023/03/03 11:34:16;;;;;;;4.45;3.30;;;8.40;77.10;;;;;;5035815;28;20090;-82
2023/03/03 11:36:54;;;;;;;4.85;3.28;;;8.50;77.20;;;;;;5019029;28;20464;-82
2023/03/03 11:39:24;;;;;;;4.00;2.90;;;8.50;77.10;;;;;;5035728;28;20033;-81
2023/03/03 11:41:57;;;;;;;4.68;3.10;;;8.60;77.20;;;;;;5035731;28;20025;-81
2023/03/03 11:44:28;;;;;;;4.72;3.00;;;8.60;77.30;;;;;;5019192;28;20390;-80
2023/03/03 11:47:17;;;;;;;4.13;3.03;;;8.70;77.30;;;;;;5053854;28;20025;-81
2023/03/03 11:49:51;;;;;;;3.83;2.90;;;8.70;77.30;;;;;;5035612;28;20033;-82
2023/03/03 11:52:27;;;;;;;4.75;3.08;;;8.80;77.40;;;;;;5019924;28;20033;-80
2023/03/03 11:55:32;;;;;;;4.47;2.80;;;8.90;77.50;;;;;;5018559;28;20052;-83
2023/03/03 11:58:13;;;;;;;4.13;3.10;;;8.90;77.60;;;;;;5035674;28;20036;-82
2023/03/03 12:00:53;;;;;;;4.60;3.10;;;8.90;77.50;;;;;;5035798;28;20025;-86
2023/03/03 12:03:26;;;;;;;5.15;3.22;;;9.00;77.50;;;;;;5053485;28;20029;-82
2023/03/03 12:06:24;;;;;;;3.78;2.85;;;9.10;77.60;;;;;;5036015;28;20162;-82
2023/03/03 12:09:29;;;;;;;4.40;3.10;;;9.10;77.80;;;;;;5011743;28;20049;-83
2023/03/03 12:12:03;;;;;;;3.85;2.90;;;9.20;77.90;;;;;;5035284;28;20033;-82
2023/03/03 12:14:47;;;;;;;4.78;2.95;;;9.20;77.80;;;;;;5019619;28;20033;-82
2023/03/03 12:17:25;;;;;;;4.05;2.70;;;9.30;77.90;;;;;;5019447;28;20040;-85
2023/03/03 12:20:09;;;;;;;4.28;2.78;;;9.30;78.00;;;;;;5053481;28;20085;-81
2023/03/03 12:23:07;;;;;;;3.17;2.50;;;9.30;78.10;;;;;;5035400;28;20021;-80
2023/03/03 12:26:10;;;;;;;4.32;2.92;;;9.40;78.10;;;;;;5019396;28;20445;-81
2023/03/03 12:28:47;;;;;;;3.78;2.63;;;9.50;78.20;;;;;;5012411;28;20370;-80
2023/03/03 12:31:16;;;;;;;3.38;2.72;;;9.50;78.10;;;;;;5052889;28;20072;-82
2023/03/03 12:34:01;;;;;;;3.88;2.60;;;9.60;78.50;;;;;;5035258;28;20545;-81
2023/03/03 12:36:48;;;;;;;3.65;2.78;;;9.60;78.30;;;;;;5035176;28;20108;-81
2023/03/03 12:39:23;;;;;;;3.78;2.67;;;9.70;78.30;;;;;;5018327;28;20083;-81
2023/03/03 12:42:23;;;;;;;3.55;2.47;;;9.70;78.30;;;;;;5035582;28;20040;-81
2023/03/03 12:45:08;;;;;;;3.65;2.50;;;9.80;78.40;;;;;;5037339;28;20029;-80
2023/03/03 12:47:33;;;;;;;3.97;2.70;;;9.80;78.40;;;;;;5038757;28;20037;-85
2023/03/03 12:50:08;;;;;;;5.05;2.92;;;9.80;78.30;;;;;;5038411;28;20427;-80
2023/03/03 12:52:56;;;;;;;3.25;2.30;;;9.90;78.50;;;;;;5022020;28;20036;-81
2023/03/03 12:55:41;;;;;;;3.53;2.80;;;9.90;78.50;;;;;;5038796;28;20033;-83
2023/03/03 12:58:40;;;;;;;4.22;3.00;;;10.00;78.50;;;;;;5021738;28;20029;-81
2023/03/03 13:01:44;;;;;;;3.38;2.65;;;10.00;78.50;;;;;;5056662;28;20033;-81
2023/03/03 13:04:28;;;;;;;3.15;2.50;;;10.10;78.90;;;;;;5036543;28;20041;-81
2023/03/03 13:07:30;;;;;;;3.10;2.25;;;10.10;78.40;;;;;;5055569;28;20036;-83
2023/03/03 13:10:19;;;;;;;3.55;2.60;;;10.20;78.60;;;;;;5020130;28;20071;-82
2023/03/03 13:13:08;;;;;;;2.85;2.40;;;10.20;78.60;;;;;;5038232;28;20488;-81
2023/03/03 13:15:42;;;;;;;2.97;2.30;;;10.20;78.60;;;;;;5038529;28;20337;-82
2023/03/03 13:18:26;;;;;;;3.53;2.70;;;10.30;78.50;;;;;;5037762;28;20039;-82
2023/03/03 13:20:58;;;;;;;3.90;2.47;;;10.30;78.60;;;;;;5038057;28;20025;-83
2023/03/03 13:23:53;;;;;;;2.90;2.40;;;10.40;78.50;;;;;;5056005;28;20029;-83